sensor_id;sensor_type;location;lat;lon;timestamp;temperature;humidity
24158;DHT22;12316;50.904;4.200;2024-03-25T00:02:02;4.10;99.90
24158;DHT22;12316;50.904;4.200;2024-03-25T00:04:28;4.10;99.90
24158;DHT22;12316;50.904;4.200;2024-03-25T00:06:54;4.20;99.90
24158;DHT22;12316;50.904;4.200;2024-03-25T00:09:20;4.20;99.90
24158;DHT22;12316;50.904;4.200;2024-03-25T00:11:46;4.30;99.90
24158;DHT22;12316;50.904;4.200;2024-03-25T00:14:11;4.40;99.90
24158;DHT22;12316;50.904;4.200;2024-03-25T00:16:37;4.30;99.90
24158;DHT22;12316;50.904;4.200;2024-03-25T00:19:03;4.30;99.90
24158;DHT22;12316;50.904;4.200;2024-03-25T00:21:28;4.10;99.90
24158;DHT22;12316;50.904;4.200;2024-03-25T00:23:55;4.10;99.90
24158;DHT22;12316;50.904;4.200;2024-03-25T00:26:24;4.10;99.90
24158;DHT22;12316;50.904;4.200;2024-03-25T00:28:49;4.10;99.90
24158;DHT22;12316;50.904;4.200;2024-03-25T00:31:15;4.10;99.90
24158;DHT22;12316;50.904;4.200;2024-03-25T00:33:41;4.20;99.90
24158;DHT22;12316;50.904;4.200;2024-03-25T00:36:07;4.20;99.90
24158;DHT22;12316;50.904;4.200;2024-03-25T00:38:33;4.20;99.90
24158;DHT22;12316;50.904;4.200;2024-03-25T00:40:58;4.30;99.90
24158;DHT22;12316;50.904;4.200;2024-03-25T00:43:24;4.30;99.90
24158;DHT22;12316;50.904;4.200;2024-03-25T00:45:50;4.30;99.90
24158;DHT22;12316;50.904;4.200;2024-03-25T00:48:15;4.30;99.90
24158;DHT22;12316;50.904;4.200;2024-03-25T00:50:41;4.30;99.90
24158;DHT22;12316;50.904;4.200;2024-03-25T00:53:07;4.20;99.90
24158;DHT22;12316;50.904;4.200;2024-03-25T00:55:33;4.10;99.90
24158;DHT22;12316;50.904;4.200;2024-03-25T00:58:03;4.20;99.90
24158;DHT22;12316;50.904;4.200;2024-03-25T01:00:29;4.10;99.90
24158;DHT22;12316;50.904;4.200;2024-03-25T01:02:55;4.20;99.90
24158;DHT22;12316;50.904;4.200;2024-03-25T01:05:21;4.20;99.90
24158;DHT22;12316;50.904;4.200;2024-03-25T01:07:46;4.20;99.90
24158;DHT22;12316;50.904;4.200;2024-03-25T01:10:12;4.30;99.90
24158;DHT22;12316;50.904;4.200;2024-03-25T01:12:39;4.20;99.90
24158;DHT22;12316;50.904;4.200;2024-03-25T01:15:05;4.30;99.90
24158;DHT22;12316;50.904;4.200;2024-03-25T01:17:31;4.10;99.90
24158;DHT22;12316;50.904;4.200;2024-03-25T01:19:57;4.00;99.90
24158;DHT22;12316;50.904;4.200;2024-03-25T01:22:22;4.00;99.90
24158;DHT22;12316;50.904;4.200;2024-03-25T01:24:48;4.00;99.90
24158;DHT22;12316;50.904;4.200;2024-03-25T01:27:14;4.00;99.90
24158;DHT22;12316;50.904;4.200;2024-03-25T01:29:39;4.00;99.90
24158;DHT22;12316;50.904;4.200;2024-03-25T01:32:05;3.80;99.90
24158;DHT22;12316;50.904;4.200;2024-03-25T01:34:31;3.80;99.90
24158;DHT22;12316;50.904;4.200;2024-03-25T01:36:58;3.80;99.90
24158;DHT22;12316;50.904;4.200;2024-03-25T01:39:24;3.90;99.90
24158;DHT22;12316;50.904;4.200;2024-03-25T01:41:50;3.90;99.90
24158;DHT22;12316;50.904;4.200;2024-03-25T01:44:16;4.00;99.90
24158;DHT22;12316;50.904;4.200;2024-03-25T01:46:42;3.80;99.90
24158;DHT22;12316;50.904;4.200;2024-03-25T01:49:08;3.70;99.90
24158;DHT22;12316;50.904;4.200;2024-03-25T01:51:35;3.80;99.90
24158;DHT22;12316;50.904;4.200;2024-03-25T01:54:02;4.10;99.90
24158;DHT22;12316;50.904;4.200;2024-03-25T01:56:31;4.00;99.90
24158;DHT22;12316;50.904;4.200;2024-03-25T01:58:58;3.90;99.90
24158;DHT22;12316;50.904;4.200;2024-03-25T02:01:25;4.00;99.90
24158;DHT22;12316;50.904;4.200;2024-03-25T02:03:51;3.80;99.90
24158;DHT22;12316;50.904;4.200;2024-03-25T02:06:19;3.50;99.90
24158;DHT22;12316;50.904;4.200;2024-03-25T02:08:45;3.50;99.90
24158;DHT22;12316;50.904;4.200;2024-03-25T02:11:12;3.60;99.90
24158;DHT22;12316;50.904;4.200;2024-03-25T02:13:39;3.60;99.90
24158;DHT22;12316;50.904;4.200;2024-03-25T02:16:05;3.50;99.90
24158;DHT22;12316;50.904;4.200;2024-03-25T02:18:31;3.40;99.90
24158;DHT22;12316;50.904;4.200;2024-03-25T02:21:00;3.60;99.90
24158;DHT22;12316;50.904;4.200;2024-03-25T02:23:26;3.60;99.90
24158;DHT22;12316;50.904;4.200;2024-03-25T02:25:53;3.70;99.90
24158;DHT22;12316;50.904;4.200;2024-03-25T02:28:19;3.60;99.90
24158;DHT22;12316;50.904;4.200;2024-03-25T02:30:45;3.60;99.90
24158;DHT22;12316;50.904;4.200;2024-03-25T02:33:11;3.50;99.90
24158;DHT22;12316;50.904;4.200;2024-03-25T02:35:38;3.50;99.90
24158;DHT22;12316;50.904;4.200;2024-03-25T02:38:05;3.70;99.90
24158;DHT22;12316;50.904;4.200;2024-03-25T02:40:30;3.70;99.90
24158;DHT22;12316;50.904;4.200;2024-03-25T02:42:57;3.60;99.90
24158;DHT22;12316;50.904;4.200;2024-03-25T02:45:23;3.60;99.90
24158;DHT22;12316;50.904;4.200;2024-03-25T02:47:50;3.80;99.90
24158;DHT22;12316;50.904;4.200;2024-03-25T02:50:16;3.80;99.90
24158;DHT22;12316;50.904;4.200;2024-03-25T02:52:42;3.80;99.90
24158;DHT22;12316;50.904;4.200;2024-03-25T02:55:07;3.90;99.90
24158;DHT22;12316;50.904;4.200;2024-03-25T02:57:34;3.80;99.90
24158;DHT22;12316;50.904;4.200;2024-03-25T03:00:00;3.70;99.90
24158;DHT22;12316;50.904;4.200;2024-03-25T03:02:25;3.70;99.90
24158;DHT22;12316;50.904;4.200;2024-03-25T03:04:51;3.70;99.90
24158;DHT22;12316;50.904;4.200;2024-03-25T03:07:18;3.70;99.90
24158;DHT22;12316;50.904;4.200;2024-03-25T03:09:43;3.80;99.90
24158;DHT22;12316;50.904;4.200;2024-03-25T03:12:09;3.70;99.90
24158;DHT22;12316;50.904;4.200;2024-03-25T03:14:34;3.70;99.90
24158;DHT22;12316;50.904;4.200;2024-03-25T03:17:00;3.60;99.90
24158;DHT22;12316;50.904;4.200;2024-03-25T03:19:30;3.70;99.90
24158;DHT22;12316;50.904;4.200;2024-03-25T03:21:56;3.80;99.90
24158;DHT22;12316;50.904;4.200;2024-03-25T03:24:22;3.80;99.90
24158;DHT22;12316;50.904;4.200;2024-03-25T03:26:48;3.80;99.90
24158;DHT22;12316;50.904;4.200;2024-03-25T03:29:14;3.90;99.90
24158;DHT22;12316;50.904;4.200;2024-03-25T03:31:39;3.90;99.90
24158;DHT22;12316;50.904;4.200;2024-03-25T03:34:05;4.20;99.90
24158;DHT22;12316;50.904;4.200;2024-03-25T03:36:31;4.10;99.90
24158;DHT22;12316;50.904;4.200;2024-03-25T03:38:56;4.30;99.90
24158;DHT22;12316;50.904;4.200;2024-03-25T03:41:22;4.30;99.90
24158;DHT22;12316;50.904;4.200;2024-03-25T03:43:48;4.50;99.90
24158;DHT22;12316;50.904;4.200;2024-03-25T03:46:13;4.60;99.90
24158;DHT22;12316;50.904;4.200;2024-03-25T03:48:39;4.80;99.90
24158;DHT22;12316;50.904;4.200;2024-03-25T03:51:05;4.90;99.90
24158;DHT22;12316;50.904;4.200;2024-03-25T03:53:32;4.90;99.90
24158;DHT22;12316;50.904;4.200;2024-03-25T03:56:01;5.00;99.90
24158;DHT22;12316;50.904;4.200;2024-03-25T03:58:28;5.20;99.90
24158;DHT22;12316;50.904;4.200;2024-03-25T04:00:54;5.20;99.90
24158;DHT22;12316;50.904;4.200;2024-03-25T04:03:20;5.30;99.90
24158;DHT22;12316;50.904;4.200;2024-03-25T04:05:45;5.30;99.90
24158;DHT22;12316;50.904;4.200;2024-03-25T04:08:11;5.30;99.90
24158;DHT22;12316;50.904;4.200;2024-03-25T04:10:37;5.30;99.90
24158;DHT22;12316;50.904;4.200;2024-03-25T04:13:07;5.30;99.90
24158;DHT22;12316;50.904;4.200;2024-03-25T04:15:37;5.20;99.90
24158;DHT22;12316;50.904;4.200;2024-03-25T04:18:04;5.30;99.90
24158;DHT22;12316;50.904;4.200;2024-03-25T04:20:39;5.40;99.90
24158;DHT22;12316;50.904;4.200;2024-03-25T04:23:06;5.50;99.90
24158;DHT22;12316;50.904;4.200;2024-03-25T04:25:33;5.50;99.90
24158;DHT22;12316;50.904;4.200;2024-03-25T04:27:58;5.60;99.90
24158;DHT22;12316;50.904;4.200;2024-03-25T04:30:26;5.70;99.90
24158;DHT22;12316;50.904;4.200;2024-03-25T04:32:52;5.70;99.90
24158;DHT22;12316;50.904;4.200;2024-03-25T04:35:17;5.70;99.90
24158;DHT22;12316;50.904;4.200;2024-03-25T04:37:43;5.70;99.90
24158;DHT22;12316;50.904;4.200;2024-03-25T04:40:09;5.60;99.90
24158;DHT22;12316;50.904;4.200;2024-03-25T04:42:35;5.50;99.90
24158;DHT22;12316;50.904;4.200;2024-03-25T04:45:01;5.50;99.90
24158;DHT22;12316;50.904;4.200;2024-03-25T04:47:27;5.40;99.90
24158;DHT22;12316;50.904;4.200;2024-03-25T04:49:52;5.40;99.90
24158;DHT22;12316;50.904;4.200;2024-03-25T04:52:18;5.30;99.90
24158;DHT22;12316;50.904;4.200;2024-03-25T04:54:44;5.20;99.90
24158;DHT22;12316;50.904;4.200;2024-03-25T04:57:10;5.20;99.90
24158;DHT22;12316;50.904;4.200;2024-03-25T04:59:35;5.30;99.90
24158;DHT22;12316;50.904;4.200;2024-03-25T05:02:01;5.30;99.90
24158;DHT22;12316;50.904;4.200;2024-03-25T05:04:27;5.30;99.90
24158;DHT22;12316;50.904;4.200;2024-03-25T05:06:53;5.30;99.90
24158;DHT22;12316;50.904;4.200;2024-03-25T05:09:18;5.10;99.90
24158;DHT22;12316;50.904;4.200;2024-03-25T05:11:45;5.00;99.90
24158;DHT22;12316;50.904;4.200;2024-03-25T05:14:10;5.00;99.90
24158;DHT22;12316;50.904;4.200;2024-03-25T05:16:36;5.00;99.90
24158;DHT22;12316;50.904;4.200;2024-03-25T05:19:02;5.00;99.90
24158;DHT22;12316;50.904;4.200;2024-03-25T05:21:32;5.00;99.90
24158;DHT22;12316;50.904;4.200;2024-03-25T05:23:58;5.00;99.90
24158;DHT22;12316;50.904;4.200;2024-03-25T05:26:24;5.00;99.90
24158;DHT22;12316;50.904;4.200;2024-03-25T05:28:54;4.90;99.90
24158;DHT22;12316;50.904;4.200;2024-03-25T05:31:19;4.90;99.90
24158;DHT22;12316;50.904;4.200;2024-03-25T05:33:45;4.90;99.90
24158;DHT22;12316;50.904;4.200;2024-03-25T05:36:11;5.00;99.90
24158;DHT22;12316;50.904;4.200;2024-03-25T05:38:37;5.00;99.90
24158;DHT22;12316;50.904;4.200;2024-03-25T05:41:02;5.00;99.90
24158;DHT22;12316;50.904;4.200;2024-03-25T05:43:28;5.10;99.90
24158;DHT22;12316;50.904;4.200;2024-03-25T05:45:54;5.10;99.90
24158;DHT22;12316;50.904;4.200;2024-03-25T05:48:21;5.20;99.90
24158;DHT22;12316;50.904;4.200;2024-03-25T05:50:56;5.10;99.90
24158;DHT22;12316;50.904;4.200;2024-03-25T05:53:22;5.10;99.90
24158;DHT22;12316;50.904;4.200;2024-03-25T05:55:48;5.10;99.90
24158;DHT22;12316;50.904;4.200;2024-03-25T05:58:13;5.20;99.90
24158;DHT22;12316;50.904;4.200;2024-03-25T06:00:39;5.30;99.90
24158;DHT22;12316;50.904;4.200;2024-03-25T06:03:05;5.40;99.90
24158;DHT22;12316;50.904;4.200;2024-03-25T06:05:30;5.50;99.90
24158;DHT22;12316;50.904;4.200;2024-03-25T06:07:56;5.70;99.90
24158;DHT22;12316;50.904;4.200;2024-03-25T06:10:21;5.90;99.90
24158;DHT22;12316;50.904;4.200;2024-03-25T06:12:47;6.10;99.90
24158;DHT22;12316;50.904;4.200;2024-03-25T06:15:13;6.30;99.90
24158;DHT22;12316;50.904;4.200;2024-03-25T06:17:39;6.40;99.90
24158;DHT22;12316;50.904;4.200;2024-03-25T06:20:05;6.40;99.90
24158;DHT22;12316;50.904;4.200;2024-03-25T06:22:31;6.50;99.90
24158;DHT22;12316;50.904;4.200;2024-03-25T06:24:56;6.60;99.90
24158;DHT22;12316;50.904;4.200;2024-03-25T06:27:22;6.70;99.90
24158;DHT22;12316;50.904;4.200;2024-03-25T06:29:48;6.70;99.90
24158;DHT22;12316;50.904;4.200;2024-03-25T06:32:14;6.80;99.90
24158;DHT22;12316;50.904;4.200;2024-03-25T06:34:58;6.90;99.90
24158;DHT22;12316;50.904;4.200;2024-03-25T06:37:27;6.90;99.90
24158;DHT22;12316;50.904;4.200;2024-03-25T06:39:52;7.00;99.90
24158;DHT22;12316;50.904;4.200;2024-03-25T06:42:18;7.10;99.90
24158;DHT22;12316;50.904;4.200;2024-03-25T06:44:44;7.20;99.90
24158;DHT22;12316;50.904;4.200;2024-03-25T06:47:14;7.30;99.90
24158;DHT22;12316;50.904;4.200;2024-03-25T06:49:40;7.40;99.90
24158;DHT22;12316;50.904;4.200;2024-03-25T06:52:06;7.40;99.90
24158;DHT22;12316;50.904;4.200;2024-03-25T06:54:31;7.50;99.90
24158;DHT22;12316;50.904;4.200;2024-03-25T06:56:57;7.40;99.90
24158;DHT22;12316;50.904;4.200;2024-03-25T06:59:23;7.50;99.90
24158;DHT22;12316;50.904;4.200;2024-03-25T07:01:48;7.60;99.90
24158;DHT22;12316;50.904;4.200;2024-03-25T07:04:14;7.60;99.90
24158;DHT22;12316;50.904;4.200;2024-03-25T07:06:39;7.60;99.90
24158;DHT22;12316;50.904;4.200;2024-03-25T07:09:06;7.70;99.90
24158;DHT22;12316;50.904;4.200;2024-03-25T07:11:31;7.70;99.90
24158;DHT22;12316;50.904;4.200;2024-03-25T07:13:57;7.70;99.90
24158;DHT22;12316;50.904;4.200;2024-03-25T07:16:23;7.80;99.90
24158;DHT22;12316;50.904;4.200;2024-03-25T07:18:49;7.90;99.90
24158;DHT22;12316;50.904;4.200;2024-03-25T07:21:14;7.90;99.90
24158;DHT22;12316;50.904;4.200;2024-03-25T07:23:41;8.00;99.90
24158;DHT22;12316;50.904;4.200;2024-03-25T07:26:07;8.20;99.90
24158;DHT22;12316;50.904;4.200;2024-03-25T07:28:33;8.30;99.90
24158;DHT22;12316;50.904;4.200;2024-03-25T07:30:58;8.50;99.90
24158;DHT22;12316;50.904;4.200;2024-03-25T07:33:24;8.70;99.90
24158;DHT22;12316;50.904;4.200;2024-03-25T07:35:51;8.80;99.90
24158;DHT22;12316;50.904;4.200;2024-03-25T07:38:17;9.00;99.90
24158;DHT22;12316;50.904;4.200;2024-03-25T07:40:42;9.20;99.90
24158;DHT22;12316;50.904;4.200;2024-03-25T07:43:09;9.20;99.90
24158;DHT22;12316;50.904;4.200;2024-03-25T07:45:35;9.30;99.90
24158;DHT22;12316;50.904;4.200;2024-03-25T07:48:00;9.40;99.90
24158;DHT22;12316;50.904;4.200;2024-03-25T07:50:26;9.40;99.90
24158;DHT22;12316;50.904;4.200;2024-03-25T07:52:51;9.50;99.90
24158;DHT22;12316;50.904;4.200;2024-03-25T07:55:17;9.60;99.90
24158;DHT22;12316;50.904;4.200;2024-03-25T07:57:44;9.70;99.90
24158;DHT22;12316;50.904;4.200;2024-03-25T08:00:10;9.80;99.90
24158;DHT22;12316;50.904;4.200;2024-03-25T08:02:35;9.90;99.90
24158;DHT22;12316;50.904;4.200;2024-03-25T08:05:01;10.10;99.90
24158;DHT22;12316;50.904;4.200;2024-03-25T08:07:27;10.10;99.90
24158;DHT22;12316;50.904;4.200;2024-03-25T08:09:53;10.00;99.90
24158;DHT22;12316;50.904;4.200;2024-03-25T08:12:19;9.80;99.90
24158;DHT22;12316;50.904;4.200;2024-03-25T08:14:45;9.60;99.90
24158;DHT22;12316;50.904;4.200;2024-03-25T08:17:11;9.30;99.90
24158;DHT22;12316;50.904;4.200;2024-03-25T08:19:37;9.20;99.90
24158;DHT22;12316;50.904;4.200;2024-03-25T08:22:03;9.30;99.90
24158;DHT22;12316;50.904;4.200;2024-03-25T08:24:29;9.40;99.90
24158;DHT22;12316;50.904;4.200;2024-03-25T08:26:55;9.40;99.90
24158;DHT22;12316;50.904;4.200;2024-03-25T08:29:22;9.40;99.90
24158;DHT22;12316;50.904;4.200;2024-03-25T08:31:47;9.40;99.90
24158;DHT22;12316;50.904;4.200;2024-03-25T08:34:13;9.40;99.90
24158;DHT22;12316;50.904;4.200;2024-03-25T08:36:39;9.50;99.90
24158;DHT22;12316;50.904;4.200;2024-03-25T08:39:05;9.30;99.90
24158;DHT22;12316;50.904;4.200;2024-03-25T08:41:30;9.30;99.90
24158;DHT22;12316;50.904;4.200;2024-03-25T08:43:56;9.40;99.90
24158;DHT22;12316;50.904;4.200;2024-03-25T08:46:22;9.40;99.90
24158;DHT22;12316;50.904;4.200;2024-03-25T08:48:47;9.50;99.90
24158;DHT22;12316;50.904;4.200;2024-03-25T08:51:13;9.50;99.90
24158;DHT22;12316;50.904;4.200;2024-03-25T08:53:38;9.60;99.90
24158;DHT22;12316;50.904;4.200;2024-03-25T08:56:04;9.70;99.90
24158;DHT22;12316;50.904;4.200;2024-03-25T08:58:30;9.90;99.90
24158;DHT22;12316;50.904;4.200;2024-03-25T09:00:56;10.10;99.90
24158;DHT22;12316;50.904;4.200;2024-03-25T09:03:21;10.10;99.90
24158;DHT22;12316;50.904;4.200;2024-03-25T09:05:47;10.10;99.90
24158;DHT22;12316;50.904;4.200;2024-03-25T09:08:13;10.10;99.90
24158;DHT22;12316;50.904;4.200;2024-03-25T09:10:38;10.30;99.90
24158;DHT22;12316;50.904;4.200;2024-03-25T09:13:22;10.40;99.90
24158;DHT22;12316;50.904;4.200;2024-03-25T09:15:51;10.30;99.90
24158;DHT22;12316;50.904;4.200;2024-03-25T09:18:16;10.40;99.90
24158;DHT22;12316;50.904;4.200;2024-03-25T09:20:44;10.20;99.90
24158;DHT22;12316;50.904;4.200;2024-03-25T09:23:09;10.20;99.90
24158;DHT22;12316;50.904;4.200;2024-03-25T09:25:35;10.30;99.90
24158;DHT22;12316;50.904;4.200;2024-03-25T09:28:00;10.50;99.90
24158;DHT22;12316;50.904;4.200;2024-03-25T09:30:26;10.40;99.90
24158;DHT22;12316;50.904;4.200;2024-03-25T09:32:53;10.40;99.90
24158;DHT22;12316;50.904;4.200;2024-03-25T09:35:18;10.30;99.90
24158;DHT22;12316;50.904;4.200;2024-03-25T09:37:45;10.50;99.90
24158;DHT22;12316;50.904;4.200;2024-03-25T09:40:11;10.70;99.90
24158;DHT22;12316;50.904;4.200;2024-03-25T09:42:56;10.80;99.90
24158;DHT22;12316;50.904;4.200;2024-03-25T09:45:24;11.00;99.90
24158;DHT22;12316;50.904;4.200;2024-03-25T09:47:51;11.10;99.90
24158;DHT22;12316;50.904;4.200;2024-03-25T09:50:17;11.20;99.90
24158;DHT22;12316;50.904;4.200;2024-03-25T09:52:46;11.10;99.90
24158;DHT22;12316;50.904;4.200;2024-03-25T09:55:12;10.80;99.90
24158;DHT22;12316;50.904;4.200;2024-03-25T09:57:38;10.90;99.90
24158;DHT22;12316;50.904;4.200;2024-03-25T10:00:07;11.00;99.90
24158;DHT22;12316;50.904;4.200;2024-03-25T10:02:35;11.20;99.90
24158;DHT22;12316;50.904;4.200;2024-03-25T10:05:01;11.30;99.90
24158;DHT22;12316;50.904;4.200;2024-03-25T10:07:28;11.20;99.90
24158;DHT22;12316;50.904;4.200;2024-03-25T10:09:54;11.20;99.90
24158;DHT22;12316;50.904;4.200;2024-03-25T10:12:19;11.50;99.90
24158;DHT22;12316;50.904;4.200;2024-03-25T10:14:45;11.70;99.90
24158;DHT22;12316;50.904;4.200;2024-03-25T10:17:11;11.80;99.90
24158;DHT22;12316;50.904;4.200;2024-03-25T10:19:37;11.80;99.90
24158;DHT22;12316;50.904;4.200;2024-03-25T10:22:07;11.60;99.90
24158;DHT22;12316;50.904;4.200;2024-03-25T10:24:40;11.50;99.90
24158;DHT22;12316;50.904;4.200;2024-03-25T10:27:09;11.60;99.90
24158;DHT22;12316;50.904;4.200;2024-03-25T10:29:35;11.60;99.90
24158;DHT22;12316;50.904;4.200;2024-03-25T10:32:01;11.90;99.90
24158;DHT22;12316;50.904;4.200;2024-03-25T10:34:27;11.90;99.90
24158;DHT22;12316;50.904;4.200;2024-03-25T10:36:56;12.00;99.90
24158;DHT22;12316;50.904;4.200;2024-03-25T10:39:26;12.00;99.90
24158;DHT22;12316;50.904;4.200;2024-03-25T10:41:55;12.00;99.90
24158;DHT22;12316;50.904;4.200;2024-03-25T10:44:24;12.00;99.90
24158;DHT22;12316;50.904;4.200;2024-03-25T10:47:00;11.70;99.90
24158;DHT22;12316;50.904;4.200;2024-03-25T10:49:56;11.60;99.90
24158;DHT22;12316;50.904;4.200;2024-03-25T10:52:24;11.60;99.90
24158;DHT22;12316;50.904;4.200;2024-03-25T10:54:52;11.90;99.90
24158;DHT22;12316;50.904;4.200;2024-03-25T10:57:20;12.00;99.90
24158;DHT22;12316;50.904;4.200;2024-03-25T10:59:46;12.10;99.90
24158;DHT22;12316;50.904;4.200;2024-03-25T11:02:12;12.40;99.90
24158;DHT22;12316;50.904;4.200;2024-03-25T11:04:39;12.70;99.90
24158;DHT22;12316;50.904;4.200;2024-03-25T11:07:11;12.80;99.90
24158;DHT22;12316;50.904;4.200;2024-03-25T11:09:41;12.90;99.90
24158;DHT22;12316;50.904;4.200;2024-03-25T11:12:11;12.90;99.90
24158;DHT22;12316;50.904;4.200;2024-03-25T11:14:38;13.00;99.90
24158;DHT22;12316;50.904;4.200;2024-03-25T11:17:17;13.30;99.90
24158;DHT22;12316;50.904;4.200;2024-03-25T11:19:43;13.40;99.90
24158;DHT22;12316;50.904;4.200;2024-03-25T11:22:10;13.30;99.90
24158;DHT22;12316;50.904;4.200;2024-03-25T11:24:37;13.40;99.90
24158;DHT22;12316;50.904;4.200;2024-03-25T11:27:07;13.40;99.90
24158;DHT22;12316;50.904;4.200;2024-03-25T11:29:34;13.40;99.90
24158;DHT22;12316;50.904;4.200;2024-03-25T11:32:03;13.70;99.90
24158;DHT22;12316;50.904;4.200;2024-03-25T11:34:29;14.00;99.90
24158;DHT22;12316;50.904;4.200;2024-03-25T11:36:55;13.90;99.90
24158;DHT22;12316;50.904;4.200;2024-03-25T11:39:24;14.20;99.90
24158;DHT22;12316;50.904;4.200;2024-03-25T11:41:54;14.00;99.90
24158;DHT22;12316;50.904;4.200;2024-03-25T11:44:20;13.90;99.90
24158;DHT22;12316;50.904;4.200;2024-03-25T11:46:47;14.10;99.90
24158;DHT22;12316;50.904;4.200;2024-03-25T11:49:16;14.30;99.90
24158;DHT22;12316;50.904;4.200;2024-03-25T11:51:44;14.30;99.90
24158;DHT22;12316;50.904;4.200;2024-03-25T11:54:12;14.40;99.90
24158;DHT22;12316;50.904;4.200;2024-03-25T11:56:38;14.60;99.90
24158;DHT22;12316;50.904;4.200;2024-03-25T11:59:04;14.20;99.90
24158;DHT22;12316;50.904;4.200;2024-03-25T12:01:30;13.90;99.90
24158;DHT22;12316;50.904;4.200;2024-03-25T12:03:56;13.90;99.90
24158;DHT22;12316;50.904;4.200;2024-03-25T12:06:22;13.60;99.90
24158;DHT22;12316;50.904;4.200;2024-03-25T12:08:48;13.50;99.90
24158;DHT22;12316;50.904;4.200;2024-03-25T12:11:33;13.90;99.90
24158;DHT22;12316;50.904;4.200;2024-03-25T12:13:59;14.30;99.90
24158;DHT22;12316;50.904;4.200;2024-03-25T12:16:26;14.30;99.90
24158;DHT22;12316;50.904;4.200;2024-03-25T12:18:52;14.60;99.90
24158;DHT22;12316;50.904;4.200;2024-03-25T12:21:20;14.70;99.90
24158;DHT22;12316;50.904;4.200;2024-03-25T12:23:47;14.60;99.90
24158;DHT22;12316;50.904;4.200;2024-03-25T12:26:13;14.50;99.90
24158;DHT22;12316;50.904;4.200;2024-03-25T12:28:39;14.40;99.90
24158;DHT22;12316;50.904;4.200;2024-03-25T12:31:08;14.30;99.90
24158;DHT22;12316;50.904;4.200;2024-03-25T12:33:44;14.50;99.90
24158;DHT22;12316;50.904;4.200;2024-03-25T12:36:13;14.70;99.90
24158;DHT22;12316;50.904;4.200;2024-03-25T12:38:38;14.30;99.90
24158;DHT22;12316;50.904;4.200;2024-03-25T12:41:11;14.10;99.90
24158;DHT22;12316;50.904;4.200;2024-03-25T12:43:42;13.60;99.90
24158;DHT22;12316;50.904;4.200;2024-03-25T12:46:08;13.50;99.90
24158;DHT22;12316;50.904;4.200;2024-03-25T12:48:36;13.40;99.90
24158;DHT22;12316;50.904;4.200;2024-03-25T12:51:03;13.30;99.90
24158;DHT22;12316;50.904;4.200;2024-03-25T12:53:28;13.40;99.90
24158;DHT22;12316;50.904;4.200;2024-03-25T12:55:54;13.70;99.90
24158;DHT22;12316;50.904;4.200;2024-03-25T12:58:20;13.80;99.90
24158;DHT22;12316;50.904;4.200;2024-03-25T13:00:45;14.00;99.90
24158;DHT22;12316;50.904;4.200;2024-03-25T13:03:12;13.80;99.90
24158;DHT22;12316;50.904;4.200;2024-03-25T13:05:38;13.60;99.90
24158;DHT22;12316;50.904;4.200;2024-03-25T13:08:04;13.40;99.90
24158;DHT22;12316;50.904;4.200;2024-03-25T13:10:30;13.50;99.90
24158;DHT22;12316;50.904;4.200;2024-03-25T13:12:56;13.90;99.90
24158;DHT22;12316;50.904;4.200;2024-03-25T13:15:22;14.20;99.90
24158;DHT22;12316;50.904;4.200;2024-03-25T13:17:48;14.40;99.90
24158;DHT22;12316;50.904;4.200;2024-03-25T13:20:14;14.70;99.90
24158;DHT22;12316;50.904;4.200;2024-03-25T13:22:41;14.90;99.90
24158;DHT22;12316;50.904;4.200;2024-03-25T13:25:08;14.90;99.90
24158;DHT22;12316;50.904;4.200;2024-03-25T13:27:34;14.40;99.90
24158;DHT22;12316;50.904;4.200;2024-03-25T13:30:00;14.20;99.90
24158;DHT22;12316;50.904;4.200;2024-03-25T13:32:26;13.80;99.90
24158;DHT22;12316;50.904;4.200;2024-03-25T13:34:51;13.60;99.90
24158;DHT22;12316;50.904;4.200;2024-03-25T13:37:17;13.70;99.90
24158;DHT22;12316;50.904;4.200;2024-03-25T13:39:42;13.70;99.90
24158;DHT22;12316;50.904;4.200;2024-03-25T13:42:08;13.70;99.90
24158;DHT22;12316;50.904;4.200;2024-03-25T13:44:34;13.80;99.90
24158;DHT22;12316;50.904;4.200;2024-03-25T13:47:00;13.80;99.90
24158;DHT22;12316;50.904;4.200;2024-03-25T13:49:26;14.00;99.90
24158;DHT22;12316;50.904;4.200;2024-03-25T13:51:57;14.20;99.90
24158;DHT22;12316;50.904;4.200;2024-03-25T13:54:29;14.40;99.90
24158;DHT22;12316;50.904;4.200;2024-03-25T13:56:57;14.30;99.90
24158;DHT22;12316;50.904;4.200;2024-03-25T13:59:23;14.50;99.90
24158;DHT22;12316;50.904;4.200;2024-03-25T14:01:49;14.80;99.90
24158;DHT22;12316;50.904;4.200;2024-03-25T14:04:14;15.00;99.90
24158;DHT22;12316;50.904;4.200;2024-03-25T14:06:40;15.10;99.90
24158;DHT22;12316;50.904;4.200;2024-03-25T14:09:07;15.20;99.90
24158;DHT22;12316;50.904;4.200;2024-03-25T14:11:34;15.10;99.90
24158;DHT22;12316;50.904;4.200;2024-03-25T14:14:01;15.00;99.90
24158;DHT22;12316;50.904;4.200;2024-03-25T14:16:28;14.60;99.90
24158;DHT22;12316;50.904;4.200;2024-03-25T14:18:54;14.40;99.90
24158;DHT22;12316;50.904;4.200;2024-03-25T14:21:21;14.60;99.90
24158;DHT22;12316;50.904;4.200;2024-03-25T14:23:47;14.70;99.90
24158;DHT22;12316;50.904;4.200;2024-03-25T14:26:14;14.80;99.90
24158;DHT22;12316;50.904;4.200;2024-03-25T14:28:42;14.90;99.90
24158;DHT22;12316;50.904;4.200;2024-03-25T14:31:08;15.00;99.90
24158;DHT22;12316;50.904;4.200;2024-03-25T14:33:34;15.00;99.90
24158;DHT22;12316;50.904;4.200;2024-03-25T14:35:59;14.80;99.90
24158;DHT22;12316;50.904;4.200;2024-03-25T14:38:25;14.70;99.90
24158;DHT22;12316;50.904;4.200;2024-03-25T14:40:51;14.50;99.90
24158;DHT22;12316;50.904;4.200;2024-03-25T14:43:18;14.40;99.90
24158;DHT22;12316;50.904;4.200;2024-03-25T14:45:45;14.20;99.90
24158;DHT22;12316;50.904;4.200;2024-03-25T14:48:11;14.10;99.90
24158;DHT22;12316;50.904;4.200;2024-03-25T14:50:38;14.20;99.90
24158;DHT22;12316;50.904;4.200;2024-03-25T14:53:04;14.10;99.90
24158;DHT22;12316;50.904;4.200;2024-03-25T14:55:30;14.10;99.90
24158;DHT22;12316;50.904;4.200;2024-03-25T14:57:56;14.10;99.90
24158;DHT22;12316;50.904;4.200;2024-03-25T15:00:24;14.10;99.90
24158;DHT22;12316;50.904;4.200;2024-03-25T15:02:53;13.80;99.90
24158;DHT22;12316;50.904;4.200;2024-03-25T15:05:19;13.60;99.90
24158;DHT22;12316;50.904;4.200;2024-03-25T15:07:45;13.60;99.90
24158;DHT22;12316;50.904;4.200;2024-03-25T15:10:11;13.80;99.90
24158;DHT22;12316;50.904;4.200;2024-03-25T15:12:40;13.90;99.90
24158;DHT22;12316;50.904;4.200;2024-03-25T15:15:06;13.80;99.90
24158;DHT22;12316;50.904;4.200;2024-03-25T15:17:34;13.90;99.90
24158;DHT22;12316;50.904;4.200;2024-03-25T15:20:00;14.20;99.90
24158;DHT22;12316;50.904;4.200;2024-03-25T15:22:25;14.40;99.90
24158;DHT22;12316;50.904;4.200;2024-03-25T15:24:51;14.40;99.90
24158;DHT22;12316;50.904;4.200;2024-03-25T15:27:17;14.40;99.90
24158;DHT22;12316;50.904;4.200;2024-03-25T15:29:42;14.30;99.90
24158;DHT22;12316;50.904;4.200;2024-03-25T15:32:08;14.50;99.90
24158;DHT22;12316;50.904;4.200;2024-03-25T15:34:34;14.50;99.90
24158;DHT22;12316;50.904;4.200;2024-03-25T15:36:59;14.50;99.90